Time;durP1;ratioP1;P1;durP2;ratioP2;P2;SDS_P1;SDS_P2;PMS_P1;PMS_P2;Temp;Humidity;BMP_temperature;BMP_pressure;BME280_temperature;BME280_humidity;BME280_pressure;Samples;Min_cycle;Max_cycle;Signal;HPM_P1;HPM_P2
2022/06/27 00:00:59;;;;;;;5.75;3.90;;;17.00;88.50;;;;;;5113204;27;20031;-45
2022/06/27 00:03:25;;;;;;;7.00;3.70;;;17.00;88.40;;;;;;5116276;27;20027;-44
2022/06/27 00:05:50;;;;;;;4.80;3.22;;;16.90;88.20;;;;;;5112207;28;20433;-45
2022/06/27 00:08:16;;;;;;;6.97;4.07;;;16.90;88.30;;;;;;5092216;28;20032;-45
2022/06/27 00:10:42;;;;;;;4.68;3.05;;;16.90;88.20;;;;;;5112049;28;20023;-45
2022/06/27 00:13:07;;;;;;;4.55;3.60;;;16.90;88.20;;;;;;5111667;27;20039;-45
2022/06/27 00:15:33;;;;;;;5.03;3.17;;;16.90;88.40;;;;;;5077505;28;20042;-44
2022/06/27 00:18:01;;;;;;;5.22;3.50;;;16.90;88.50;;;;;;5111704;28;20024;-45
2022/06/27 00:20:27;;;;;;;6.20;4.47;;;16.90;88.60;;;;;;5112295;28;20060;-45
2022/06/27 00:22:53;;;;;;;5.55;3.28;;;16.90;88.60;;;;;;5112318;27;20035;-46
2022/06/27 00:25:19;;;;;;;6.25;3.95;;;16.90;88.60;;;;;;5111493;28;20050;-44
2022/06/27 00:27:44;;;;;;;5.57;3.28;;;16.90;88.70;;;;;;5116917;27;20027;-44
2022/06/27 00:30:13;;;;;;;5.32;3.10;;;16.90;88.90;;;;;;5132570;27;20027;-44
2022/06/27 00:32:39;;;;;;;4.40;2.97;;;16.90;89.20;;;;;;5128403;27;20035;-45
2022/06/27 00:35:06;;;;;;;6.03;3.30;;;17.00;89.40;;;;;;5116122;27;20157;-46
2022/06/27 00:37:32;;;;;;;4.32;3.22;;;17.00;89.50;;;;;;5111446;28;20035;-45
2022/06/27 00:39:58;;;;;;;8.32;3.22;;;17.10;89.60;;;;;;5111805;28;20049;-46
2022/06/27 00:42:24;;;;;;;3.83;2.60;;;17.20;89.60;;;;;;5111822;27;20057;-43
2022/06/27 00:44:50;;;;;;;4.18;2.80;;;17.20;89.60;;;;;;5128043;27;20031;-44
2022/06/27 00:47:18;;;;;;;8.20;3.45;;;17.20;89.70;;;;;;5092996;28;20038;-44
2022/06/27 00:49:44;;;;;;;5.30;3.42;;;17.20;89.80;;;;;;5092541;28;20028;-45
2022/06/27 00:52:11;;;;;;;6.75;2.85;;;17.30;89.90;;;;;;5110860;28;20471;-44
2022/06/27 00:54:42;;;;;;;6.40;3.08;;;17.20;89.90;;;;;;5099741;28;20040;-43
2022/06/27 00:57:08;;;;;;;8.10;3.08;;;17.30;90.00;;;;;;5110765;28;20033;-44
2022/06/27 00:59:35;;;;;;;6.63;3.28;;;17.30;90.10;;;;;;5110354;27;20066;-44
2022/06/27 01:02:01;;;;;;;9.63;4.00;;;17.40;90.20;;;;;;5092886;28;20104;-44
2022/06/27 01:04:29;;;;;;;9.85;3.83;;;17.40;90.10;;;;;;5120612;27;20019;-44
2022/06/27 01:06:56;;;;;;;11.75;3.72;;;17.30;89.80;;;;;;5117946;27;20094;-46
2022/06/27 01:09:22;;;;;;;11.07;4.00;;;17.20;89.40;;;;;;5131543;27;20040;-57
2022/06/27 01:11:51;;;;;;;21.38;5.07;;;17.10;89.20;;;;;;5126453;27;20027;-58
2022/06/27 01:14:18;;;;;;;14.48;5.00;;;17.10;89.40;;;;;;5125673;27;20023;-55
2022/06/27 01:16:44;;;;;;;12.68;4.88;;;17.00;89.80;;;;;;5094900;28;20028;-60
2022/06/27 01:19:12;;;;;;;21.13;5.13;;;16.90;90.00;;;;;;5093115;28;20486;-59
2022/06/27 01:21:51;;;;;;;11.77;3.92;;;16.90;90.10;;;;;;5106508;27;20031;-51
2022/06/27 01:24:18;;;;;;;20.80;5.67;;;16.80;90.30;;;;;;5112883;27;20106;-44
2022/06/27 01:26:45;;;;;;;19.50;5.32;;;16.80;90.40;;;;;;5129678;27;20483;-57
2022/06/27 01:29:13;;;;;;;14.10;4.60;;;16.80;90.60;;;;;;5130040;27;20030;-60
2022/06/27 01:31:40;;;;;;;14.77;5.10;;;16.70;90.60;;;;;;5131116;27;20027;-58
2022/06/27 01:34:07;;;;;;;15.38;5.57;;;16.60;90.70;;;;;;5124795;27;20023;-49
2022/06/27 01:36:46;;;;;;;10.90;4.85;;;16.70;90.80;;;;;;5112940;27;20050;-50
2022/06/27 01:39:14;;;;;;;12.77;4.18;;;16.60;90.90;;;;;;5114757;27;20133;-48
2022/06/27 01:42:00;;;;;;;12.45;4.20;;;16.60;90.90;;;;;;5110390;28;20111;-47
2022/06/27 01:44:28;;;;;;;13.73;4.72;;;16.60;91.00;;;;;;5121865;27;20051;-50
2022/06/27 01:47:01;;;;;;;10.45;5.00;;;16.40;91.00;;;;;;5110503;27;20020;-47
2022/06/27 01:49:29;;;;;;;8.52;5.35;;;16.40;91.10;;;;;;5091608;28;20050;-48
2022/06/27 01:51:56;;;;;;;10.32;4.60;;;16.40;91.20;;;;;;5110299;28;20076;-58
2022/06/27 01:54:23;;;;;;;9.18;4.35;;;16.40;91.10;;;;;;5123209;27;20068;-61
2022/06/27 01:56:50;;;;;;;13.65;6.18;;;16.20;91.00;;;;;;5110384;27;20031;-60
2022/06/27 01:59:18;;;;;;;17.27;5.55;;;16.20;91.10;;;;;;5109938;28;20031;-58
2022/06/27 02:01:44;;;;;;;12.63;6.40;;;16.20;91.20;;;;;;5117021;27;20022;-59
2022/06/27 02:04:12;;;;;;;15.23;5.72;;;16.20;91.30;;;;;;5124595;27;20021;-61
2022/06/27 02:06:39;;;;;;;17.33;6.32;;;16.20;91.30;;;;;;5113935;27;20460;-55
2022/06/27 02:09:07;;;;;;;21.65;6.35;;;16.30;91.40;;;;;;5109829;27;20498;-51
2022/06/27 02:11:33;;;;;;;12.57;5.32;;;16.20;91.40;;;;;;5109955;28;20038;-55
2022/06/27 02:13:59;;;;;;;11.10;5.15;;;16.20;91.40;;;;;;5115042;27;20036;-61
2022/06/27 02:16:25;;;;;;;12.32;4.70;;;16.20;91.60;;;;;;5114912;27;20589;-61
2022/06/27 02:18:51;;;;;;;15.07;5.28;;;16.20;91.60;;;;;;5113031;27;20106;-61
2022/06/27 02:21:24;;;;;;;7.53;4.47;;;16.10;91.50;;;;;;5130387;27;20042;-52
2022/06/27 02:23:52;;;;;;;11.48;5.03;;;16.10;91.60;;;;;;5123848;27;20036;-61
2022/06/27 02:26:23;;;;;;;9.98;5.68;;;16.10;91.60;;;;;;5109744;28;20452;-62
2022/06/27 02:28:51;;;;;;;10.93;4.18;;;16.00;91.60;;;;;;5091722;28;20046;-61
2022/06/27 02:31:17;;;;;;;14.27;4.57;;;16.00;91.60;;;;;;5091992;28;20035;-61
2022/06/27 02:33:45;;;;;;;10.60;3.72;;;15.90;91.40;;;;;;5092777;28;20035;-61
2022/06/27 02:36:15;;;;;;;7.88;3.70;;;15.90;91.30;;;;;;5091801;28;20036;-61
2022/06/27 02:38:43;;;;;;;13.57;3.72;;;15.70;91.40;;;;;;5091396;28;20044;-61
2022/06/27 02:41:19;;;;;;;9.82;3.47;;;15.70;91.40;;;;;;5130028;27;20035;-60
2022/06/27 02:43:48;;;;;;;16.25;3.50;;;15.80;91.50;;;;;;5124766;27;20043;-60
2022/06/27 02:46:14;;;;;;;16.63;5.22;;;15.70;91.60;;;;;;5121785;28;20034;-57
2022/06/27 02:48:40;;;;;;;9.63;4.00;;;15.70;91.60;;;;;;5129900;28;20094;-62
2022/06/27 02:51:15;;;;;;;9.68;4.05;;;15.60;91.60;;;;;;5128304;28;20106;-62
2022/06/27 02:54:03;;;;;;;6.32;4.10;;;15.70;91.70;;;;;;5123870;28;20050;-61
2022/06/27 02:56:32;;;;;;;9.80;3.78;;;15.70;91.80;;;;;;5112549;28;20560;-60
2022/06/27 02:59:16;;;;;;;10.20;3.93;;;15.70;91.70;;;;;;5119458;28;20059;-52
2022/06/27 03:01:43;;;;;;;8.07;4.22;;;15.60;91.50;;;;;;5095593;27;20027;-48
2022/06/27 03:04:09;;;;;;;7.80;4.40;;;15.60;91.60;;;;;;5123352;27;20031;-47
2022/06/27 03:06:34;;;;;;;9.93;3.90;;;15.70;91.70;;;;;;5121399;27;20456;-47
2022/06/27 03:09:00;;;;;;;11.65;5.57;;;15.80;92.00;;;;;;5121403;27;20024;-47
2022/06/27 03:11:26;;;;;;;13.95;4.90;;;15.70;91.70;;;;;;5107133;27;20443;-47
2022/06/27 03:13:53;;;;;;;9.60;4.95;;;15.60;91.70;;;;;;5133609;27;20031;-48
2022/06/27 03:16:20;;;;;;;7.72;3.67;;;15.60;91.70;;;;;;5120814;27;20050;-49
2022/06/27 03:18:48;;;;;;;11.90;4.78;;;15.60;91.60;;;;;;5122745;27;20054;-50
2022/06/27 03:21:17;;;;;;;12.70;3.83;;;15.50;91.50;;;;;;5122061;27;20038;-47
2022/06/27 03:23:49;;;;;;;8.75;3.25;;;15.50;91.80;;;;;;5124788;27;20031;-49
2022/06/27 03:26:17;;;;;;;8.85;3.72;;;15.50;91.60;;;;;;5133701;27;20057;-48
2022/06/27 03:28:43;;;;;;;13.02;4.38;;;15.40;91.60;;;;;;5131817;27;20513;-47
2022/06/27 03:31:11;;;;;;;10.13;3.03;;;15.40;91.70;;;;;;5127960;27;20440;-47
2022/06/27 03:33:38;;;;;;;7.80;3.33;;;15.40;91.60;;;;;;5133552;27;20019;-50
2022/06/27 03:36:04;;;;;;;5.38;3.40;;;15.40;91.70;;;;;;5129819;27;20097;-49
2022/06/27 03:38:30;;;;;;;6.50;3.00;;;15.40;91.40;;;;;;5121911;27;20030;-48
2022/06/27 03:41:01;;;;;;;13.65;3.63;;;15.40;91.60;;;;;;5121476;27;20058;-48
2022/06/27 03:43:27;;;;;;;6.80;3.67;;;15.40;91.50;;;;;;5124542;27;20456;-48
2022/06/27 03:45:56;;;;;;;5.40;3.42;;;15.40;91.70;;;;;;5123089;27;20024;-46
2022/06/27 03:51:07;;;;;;;5.53;3.58;;;15.40;91.50;;;;;;5112558;27;20620;-47
2022/06/27 03:53:33;;;;;;;9.52;3.70;;;15.50;91.60;;;;;;5112877;28;20028;-47
2022/06/27 03:55:58;;;;;;;5.80;3.83;;;15.50;91.60;;;;;;5114690;28;20102;-46
2022/06/27 03:58:24;;;;;;;7.97;3.10;;;15.50;91.60;;;;;;5111434;28;20444;-48
2022/06/27 04:00:49;;;;;;;7.78;4.28;;;15.50;91.60;;;;;;5111019;28;20047;-46
2022/06/27 04:03:15;;;;;;;8.15;3.25;;;15.60;91.70;;;;;;5111942;28;20428;-48
2022/06/27 04:05:41;;;;;;;8.43;4.70;;;15.70;91.70;;;;;;5115829;28;20451;-47
2022/06/27 04:08:07;;;;;;;5.43;3.30;;;15.70;91.70;;;;;;5114324;28;20020;-46
2022/06/27 04:10:35;;;;;;;7.13;3.20;;;15.70;91.80;;;;;;5122759;27;20019;-46
2022/06/27 04:13:02;;;;;;;6.47;3.95;;;15.80;91.80;;;;;;5131794;28;20390;-47
2022/06/27 04:15:27;;;;;;;9.70;4.00;;;15.80;91.60;;;;;;5109188;28;20055;-48
2022/06/27 04:17:53;;;;;;;7.03;3.70;;;15.70;91.60;;;;;;5131858;28;20061;-46
2022/06/27 04:20:18;;;;;;;9.18;4.03;;;15.70;91.70;;;;;;5121411;28;20476;-46
2022/06/27 04:22:44;;;;;;;6.10;3.80;;;15.70;91.60;;;;;;5110899;28;20043;-47
2022/06/27 04:25:10;;;;;;;8.48;3.40;;;15.70;91.60;;;;;;5110599;28;20016;-47
2022/06/27 04:27:36;;;;;;;8.05;3.95;;;15.70;91.60;;;;;;5111123;28;20046;-45
2022/06/27 04:30:02;;;;;;;8.25;3.80;;;15.80;91.60;;;;;;5116094;28;20102;-45
2022/06/27 04:32:28;;;;;;;7.05;3.83;;;15.80;91.70;;;;;;5112921;28;20042;-45
2022/06/27 04:34:54;;;;;;;9.18;4.30;;;15.80;91.70;;;;;;5125985;28;20023;-45
2022/06/27 04:37:20;;;;;;;11.35;4.85;;;15.80;91.80;;;;;;5114695;28;20110;-45
2022/06/27 04:39:47;;;;;;;13.02;4.95;;;15.90;91.90;;;;;;5119087;28;20027;-45
2022/06/27 04:42:13;;;;;;;9.93;3.67;;;15.90;91.80;;;;;;5131173;28;20023;-45
2022/06/27 04:44:40;;;;;;;9.38;3.60;;;15.90;91.80;;;;;;5121789;28;20061;-46
2022/06/27 04:47:08;;;;;;;10.35;3.97;;;15.90;91.80;;;;;;5110682;28;20027;-45
2022/06/27 04:49:37;;;;;;;9.80;3.58;;;15.90;91.80;;;;;;5093192;28;20024;-46
2022/06/27 04:52:06;;;;;;;7.63;3.47;;;15.90;91.80;;;;;;5109185;28;20027;-45
2022/06/27 04:54:33;;;;;;;7.47;4.25;;;16.00;91.80;;;;;;5083455;27;1149928;-45
2022/06/27 04:56:59;;;;;;;9.45;3.42;;;15.90;91.70;;;;;;5118426;27;20033;-48
2022/06/27 04:59:25;;;;;;;10.30;3.50;;;15.90;91.60;;;;;;5100598;27;20016;-45
2022/06/27 05:01:51;;;;;;;9.15;3.50;;;15.90;91.50;;;;;;5111707;27;20333;-49
2022/06/27 05:04:18;;;;;;;4.30;2.85;;;15.80;91.40;;;;;;5121118;27;20023;-46
2022/06/27 05:06:45;;;;;;;10.20;3.60;;;15.80;91.40;;;;;;5120110;27;20027;-47
2022/06/27 05:09:11;;;;;;;7.00;3.30;;;15.80;91.40;;;;;;5112681;27;20038;-47
2022/06/27 05:11:37;;;;;;;6.03;3.13;;;15.80;91.50;;;;;;5103404;27;20035;-46
2022/06/27 05:14:03;;;;;;;7.63;3.30;;;15.90;91.60;;;;;;5117793;27;20032;-47
2022/06/27 05:16:31;;;;;;;6.60;3.53;;;15.90;91.80;;;;;;5124023;27;20523;-47
2022/06/27 05:18:57;;;;;;;5.28;2.85;;;15.90;91.70;;;;;;5113947;27;20030;-49
2022/06/27 05:21:23;;;;;;;6.13;3.58;;;16.00;91.80;;;;;;5129791;27;20381;-46
2022/06/27 05:23:50;;;;;;;9.30;3.53;;;16.00;91.70;;;;;;5130015;27;20050;-46
2022/06/27 05:26:17;;;;;;;8.20;3.83;;;16.00;91.70;;;;;;5112202;27;20035;-46
2022/06/27 05:28:43;;;;;;;6.68;3.55;;;16.10;91.80;;;;;;5110147;27;20689;-46
2022/06/27 05:31:09;;;;;;;9.23;4.25;;;16.20;91.70;;;;;;5118092;27;20034;-47
2022/06/27 05:33:35;;;;;;;8.95;3.65;;;16.20;91.70;;;;;;5100844;27;20018;-47
2022/06/27 05:36:02;;;;;;;7.53;4.07;;;16.30;91.80;;;;;;5097414;27;20119;-45
2022/06/27 05:38:28;;;;;;;9.07;3.70;;;16.30;91.60;;;;;;5118136;27;20740;-47
2022/06/27 05:40:53;;;;;;;7.20;3.40;;;16.40;91.60;;;;;;5117345;27;20098;-45
2022/06/27 05:43:19;;;;;;;7.68;3.50;;;16.40;91.50;;;;;;5106698;27;20079;-46
2022/06/27 05:45:45;;;;;;;7.18;3.05;;;16.40;91.50;;;;;;5103543;27;20023;-45
2022/06/27 05:48:11;;;;;;;9.10;3.22;;;16.30;91.40;;;;;;5121215;27;20106;-45
2022/06/27 05:50:39;;;;;;;7.13;3.30;;;16.40;91.50;;;;;;5102907;27;20015;-45
2022/06/27 05:53:06;;;;;;;9.45;3.13;;;16.40;91.50;;;;;;5120266;27;20058;-46
2022/06/27 05:55:32;;;;;;;6.68;3.15;;;16.50;91.50;;;;;;5124984;27;20447;-45
2022/06/27 05:57:59;;;;;;;7.05;2.80;;;16.50;91.30;;;;;;5125793;27;20050;-44
2022/06/27 06:00:25;;;;;;;6.47;2.90;;;16.40;91.20;;;;;;5121777;27;20075;-44
2022/06/27 06:02:54;;;;;;;8.63;3.55;;;16.40;91.10;;;;;;5119653;27;20062;-44
2022/06/27 06:05:20;;;;;;;8.05;2.80;;;16.40;90.90;;;;;;5116526;27;20106;-48
2022/06/27 06:07:46;;;;;;;8.50;3.03;;;16.40;91.10;;;;;;5100889;27;20114;-44
2022/06/27 06:10:12;;;;;;;7.75;3.35;;;16.40;91.00;;;;;;5114649;27;20039;-45
2022/06/27 06:12:38;;;;;;;7.95;3.25;;;16.50;91.10;;;;;;5114843;27;20058;-43
2022/06/27 06:15:08;;;;;;;8.48;3.38;;;16.50;91.20;;;;;;5123592;27;20054;-43
2022/06/27 06:17:38;;;;;;;6.43;3.67;;;16.50;91.20;;;;;;5121156;27;20019;-43
2022/06/27 06:20:05;;;;;;;7.13;3.85;;;16.60;91.30;;;;;;5091334;28;20038;-45
2022/06/27 06:22:32;;;;;;;6.68;2.90;;;16.70;91.40;;;;;;5120951;27;20035;-43
2022/06/27 06:24:58;;;;;;;7.45;3.22;;;16.80;91.30;;;;;;5114756;27;20031;-44
2022/06/27 06:27:24;;;;;;;6.28;3.05;;;16.80;91.10;;;;;;5116526;27;20054;-43
2022/06/27 06:29:54;;;;;;;5.32;2.25;;;16.70;91.00;;;;;;5109821;28;20039;-43
2022/06/27 06:32:23;;;;;;;3.45;2.38;;;16.70;90.90;;;;;;5120037;27;20117;-43
2022/06/27 06:34:49;;;;;;;6.45;2.80;;;16.80;90.90;;;;;;5118490;27;20039;-42
2022/06/27 06:37:15;;;;;;;4.22;2.38;;;16.70;90.70;;;;;;5118549;27;20042;-42
2022/06/27 06:39:41;;;;;;;4.88;2.03;;;16.70;90.70;;;;;;5116424;27;20380;-43
2022/06/27 06:42:06;;;;;;;3.85;2.63;;;16.60;90.60;;;;;;5114016;28;20067;-43
2022/06/27 06:44:32;;;;;;;5.18;2.20;;;16.60;90.60;;;;;;5091684;28;20451;-43
2022/06/27 06:46:58;;;;;;;4.82;2.33;;;16.60;90.60;;;;;;5098424;28;20023;-44
2022/06/27 06:49:27;;;;;;;4.75;2.72;;;16.60;90.60;;;;;;5091978;28;20028;-43
2022/06/27 06:51:52;;;;;;;3.40;2.10;;;16.70;90.80;;;;;;5108961;28;20032;-43
2022/06/27 06:54:20;;;;;;;6.45;1.95;;;16.70;90.70;;;;;;5090201;28;20054;-44
2022/06/27 06:56:49;;;;;;;3.50;2.05;;;16.80;90.60;;;;;;5108471;28;20072;-44
2022/06/27 06:59:16;;;;;;;3.30;2.03;;;16.80;90.40;;;;;;5107757;28;20028;-46
2022/06/27 07:01:43;;;;;;;6.05;2.08;;;16.70;90.20;;;;;;5121163;28;20292;-43
2022/06/27 07:04:10;;;;;;;23.40;4.25;;;16.70;90.40;;;;;;5106764;28;20028;-43
2022/06/27 07:06:38;;;;;;;4.93;2.40;;;16.70;90.20;;;;;;5110212;28;20027;-43
2022/06/27 07:09:04;;;;;;;6.00;2.78;;;16.80;90.30;;;;;;5127468;28;20414;-42
2022/06/27 07:11:36;;;;;;;5.30;2.33;;;16.90;90.10;;;;;;5120271;28;20080;-42
2022/06/27 07:14:02;;;;;;;3.10;2.15;;;16.90;89.80;;;;;;5108146;28;20019;-43
2022/06/27 07:16:28;;;;;;;3.05;1.55;;;16.90;90.00;;;;;;5108865;28;20032;-42
2022/06/27 07:18:56;;;;;;;3.78;1.70;;;17.00;89.80;;;;;;5104843;28;20035;-42
2022/06/27 07:21:23;;;;;;;5.88;1.40;;;17.00;89.50;;;;;;5108825;28;20034;-44
2022/06/27 07:23:50;;;;;;;4.55;1.83;;;17.10;89.30;;;;;;5090298;28;21056;-43
2022/06/27 07:26:20;;;;;;;3.17;1.70;;;17.20;89.30;;;;;;5109228;28;20086;-41
2022/06/27 07:28:47;;;;;;;3.80;1.85;;;17.40;89.20;;;;;;5117696;28;20039;-41
2022/06/27 07:31:14;;;;;;;2.42;1.50;;;17.50;88.90;;;;;;5111033;28;20023;-41
2022/06/27 07:33:46;;;;;;;3.10;1.50;;;17.60;88.40;;;;;;5108350;28;20016;-42
2022/06/27 07:36:15;;;;;;;4.70;1.50;;;17.90;88.70;;;;;;5115522;28;20452;-42
2022/06/27 07:38:46;;;;;;;3.65;2.20;;;18.10;88.20;;;;;;5125436;28;20164;-44
2022/06/27 07:41:14;;;;;;;4.35;1.40;;;18.30;87.60;;;;;;5105466;28;20035;-43
2022/06/27 07:43:40;;;;;;;5.00;1.73;;;18.50;87.40;;;;;;5108851;28;20043;-41
2022/06/27 07:46:07;;;;;;;4.88;2.38;;;18.90;87.70;;;;;;5127353;27;20023;-43
2022/06/27 07:48:33;;;;;;;4.65;1.73;;;19.10;86.80;;;;;;5132746;27;20015;-46
2022/06/27 07:51:00;;;;;;;4.25;1.73;;;19.10;85.90;;;;;;5113209;27;20376;-43
2022/06/27 07:53:26;;;;;;;2.28;1.20;;;19.20;85.10;;;;;;5112281;27;20081;-42
2022/06/27 07:55:53;;;;;;;2.95;1.45;;;19.10;85.00;;;;;;5099496;27;20058;-42
2022/06/27 07:58:21;;;;;;;4.72;1.60;;;19.00;84.40;;;;;;5132246;27;20034;-43
2022/06/27 08:00:49;;;;;;;3.03;1.20;;;18.90;84.70;;;;;;5123108;27;20023;-44
2022/06/27 08:06:00;;;;;;;4.93;1.70;;;18.60;85.20;;;;;;5118627;27;20047;-43
2022/06/27 08:08:27;;;;;;;4.20;1.25;;;18.50;85.60;;;;;;5119860;27;20458;-43
2022/06/27 08:10:54;;;;;;;4.93;1.55;;;18.30;85.90;;;;;;5097929;27;20035;-44
2022/06/27 08:13:20;;;;;;;4.15;1.50;;;18.20;86.00;;;;;;5120079;27;20035;-41
2022/06/27 08:15:47;;;;;;;8.05;2.53;;;18.10;86.20;;;;;;5109436;27;20088;-45
2022/06/27 08:18:17;;;;;;;4.22;1.90;;;18.00;86.40;;;;;;5112166;27;20019;-42
2022/06/27 08:20:45;;;;;;;5.32;1.95;;;17.90;86.70;;;;;;5120336;27;20102;-42
2022/06/27 08:23:15;;;;;;;4.03;1.42;;;17.80;86.80;;;;;;5124280;27;20176;-43
2022/06/27 08:25:41;;;;;;;5.13;1.90;;;17.70;87.30;;;;;;5103269;27;20069;-43
2022/06/27 08:28:10;;;;;;;4.00;1.55;;;17.70;87.20;;;;;;5119844;27;20329;-42
2022/06/27 08:30:37;;;;;;;6.03;2.22;;;17.60;87.50;;;;;;5113848;27;20030;-42
2022/06/27 08:33:02;;;;;;;5.57;1.60;;;17.70;87.60;;;;;;5107713;27;20512;-43
2022/06/27 08:35:29;;;;;;;6.95;1.83;;;17.70;87.60;;;;;;5099910;27;20037;-42
2022/06/27 08:37:55;;;;;;;2.92;1.35;;;17.70;87.70;;;;;;5131023;27;20047;-42
2022/06/27 08:40:21;;;;;;;3.83;1.73;;;17.80;87.80;;;;;;5125560;27;20028;-42
2022/06/27 08:42:47;;;;;;;4.40;1.70;;;17.90;87.70;;;;;;5116223;27;20028;-43
2022/06/27 08:45:20;;;;;;;4.45;1.77;;;17.90;87.40;;;;;;5119293;27;20102;-43
2022/06/27 08:47:46;;;;;;;4.10;2.17;;;17.90;87.20;;;;;;5116195;27;20047;-42
2022/06/27 08:50:14;;;;;;;3.15;1.50;;;17.90;87.40;;;;;;5114731;27;20047;-41
2022/06/27 08:52:40;;;;;;;4.10;2.17;;;17.90;87.30;;;;;;5124159;27;20519;-42
2022/06/27 08:55:10;;;;;;;3.88;1.65;;;17.90;87.50;;;;;;5131047;27;20659;-43
2022/06/27 08:57:41;;;;;;;2.83;1.55;;;17.90;87.50;;;;;;5118844;27;20024;-41
2022/06/27 09:00:12;;;;;;;5.93;1.77;;;17.90;87.30;;;;;;5110332;28;20111;-42
2022/06/27 09:02:42;;;;;;;3.55;1.65;;;17.80;87.20;;;;;;5107100;27;20034;-42
2022/06/27 09:05:22;;;;;;;2.97;1.45;;;17.90;87.20;;;;;;5129858;27;20027;-42
2022/06/27 09:07:52;;;;;;;4.43;2.15;;;17.90;87.50;;;;;;5095243;27;20032;-44
2022/06/27 09:10:27;;;;;;;4.82;1.85;;;17.90;87.90;;;;;;5101142;27;20026;-41
2022/06/27 09:13:06;;;;;;;2.90;1.65;;;18.00;87.70;;;;;;5118589;27;20039;-41
2022/06/27 09:15:53;;;;;;;2.85;1.83;;;18.10;88.30;;;;;;5119412;27;20065;-41
2022/06/27 09:18:33;;;;;;;3.80;1.50;;;18.30;88.40;;;;;;5117897;27;20102;-41
2022/06/27 09:21:12;;;;;;;3.97;1.67;;;18.40;87.50;;;;;;5119102;27;20036;-41
2022/06/27 09:23:49;;;;;;;3.28;1.30;;;18.60;87.60;;;;;;5122902;27;20727;-42
2022/06/27 09:26:19;;;;;;;4.07;1.17;;;18.60;86.80;;;;;;5126368;27;20029;-42
2022/06/27 09:28:58;;;;;;;3.05;1.30;;;18.80;85.90;;;;;;5130107;27;20301;-43
2022/06/27 09:31:28;;;;;;;3.50;1.35;;;18.90;85.30;;;;;;5121974;27;20130;-44
2022/06/27 09:34:18;;;;;;;4.90;1.20;;;19.20;85.50;;;;;;5122551;27;20027;-42
2022/06/27 09:36:54;;;;;;;2.17;1.25;;;19.40;84.70;;;;;;5113770;27;20083;-42
2022/06/27 09:39:24;;;;;;;2.38;1.13;;;19.20;83.80;;;;;;5119340;27;20030;-43
2022/06/27 09:42:00;;;;;;;2.47;1.17;;;19.00;84.40;;;;;;5111900;27;20031;-42
2022/06/27 09:44:45;;;;;;;6.15;1.20;;;18.90;83.90;;;;;;5126308;27;20078;-41
2022/06/27 09:47:15;;;;;;;2.65;1.30;;;18.70;84.30;;;;;;5129988;27;20098;-42
2022/06/27 09:49:43;;;;;;;;;;;18.40;84.40;;;;;;5113291;27;20032;-44
2022/06/27 09:52:13;;;;;;;2.55;1.10;;;18.30;84.70;;;;;;5111524;27;19918;-41
2022/06/27 09:54:41;;;;;;;2.30;1.05;;;18.20;85.20;;;;;;5091514;28;20093;-42
2022/06/27 09:57:10;;;;;;;3.25;1.27;;;18.10;85.40;;;;;;5109627;27;20031;-45
2022/06/27 09:59:37;;;;;;;5.30;1.30;;;18.10;85.80;;;;;;5107985;27;20023;-43
2022/06/27 10:02:06;;;;;;;6.72;1.60;;;17.90;85.40;;;;;;5079023;27;20093;-42
2022/06/27 10:04:34;;;;;;;3.97;1.65;;;17.90;85.90;;;;;;5112950;27;20078;-41
2022/06/27 10:07:05;;;;;;;2.55;1.23;;;17.80;86.40;;;;;;5120759;27;20452;-42
2022/06/27 10:09:32;;;;;;;2.33;1.25;;;17.80;85.90;;;;;;5109064;27;20332;-41
2022/06/27 10:12:36;;;;;;;3.17;1.48;;;17.70;86.00;;;;;;5125043;27;20019;-44
2022/06/27 10:15:06;;;;;;;2.42;1.05;;;17.80;86.10;;;;;;5115966;27;20072;-43
2022/06/27 10:17:35;;;;;;;4.32;1.30;;;17.70;86.40;;;;;;5109998;28;20440;-46
2022/06/27 10:20:06;;;;;;;3.92;1.88;;;17.80;86.70;;;;;;5108846;27;20443;-41
2022/06/27 10:22:31;;;;;;;4.72;2.03;;;17.80;87.10;;;;;;5109218;28;20364;-42
2022/06/27 10:25:28;;;;;;;7.88;2.78;;;17.80;87.70;;;;;;5102235;27;20027;-42
2022/06/27 10:28:09;;;;;;;4.53;2.47;;;17.80;87.90;;;;;;5129510;27;20023;-42
2022/06/27 10:30:54;;;;;;;3.83;2.38;;;17.90;88.00;;;;;;5113648;27;20023;-44
2022/06/27 10:33:25;;;;;;;5.97;2.28;;;17.90;87.80;;;;;;5097429;28;20027;-41
2022/06/27 10:38:43;;;;;;;3.63;2.30;;;17.80;87.90;;;;;;5117786;27;20459;-43
2022/06/27 10:41:18;;;;;;;5.20;2.25;;;17.80;87.80;;;;;;5110881;27;20027;-43
2022/06/27 10:43:51;;;;;;;4.65;2.30;;;17.70;87.90;;;;;;5091218;28;20027;-42
2022/06/27 10:46:16;;;;;;;4.65;1.90;;;17.70;88.00;;;;;;5110938;28;20027;-44
2022/06/27 10:49:06;;;;;;;5.30;2.45;;;17.60;88.10;;;;;;5129077;28;20363;-41
2022/06/27 10:51:34;;;;;;;3.88;2.38;;;17.70;88.50;;;;;;5089421;28;20031;-43
2022/06/27 10:54:05;;;;;;;3.15;2.20;;;17.70;88.40;;;;;;5108492;28;20044;-43
2022/06/27 10:56:47;;;;;;;4.07;2.30;;;17.60;88.60;;;;;;5109242;28;20502;-46
2022/06/27 10:59:13;;;;;;;5.15;2.38;;;17.60;88.90;;;;;;5118234;28;20425;-54
2022/06/27 11:02:03;;;;;;;4.82;2.33;;;17.50;89.00;;;;;;5124206;28;20110;-49
2022/06/27 11:04:28;;;;;;;;;;;17.50;89.00;;;;;;5128278;28;20035;-48
2022/06/27 11:06:56;;;;;;;4.85;3.08;;;17.40;89.20;;;;;;5128416;28;19907;-51
2022/06/27 11:09:47;;;;;;;4.70;3.25;;;17.40;89.60;;;;;;5120066;28;20100;-56
2022/06/27 11:12:19;;;;;;;5.80;3.42;;;17.40;89.70;;;;;;5099981;28;20063;-51
2022/06/27 11:14:47;;;;;;;5.55;4.45;;;17.50;89.80;;;;;;5105830;28;20065;-46
2022/06/27 11:17:37;;;;;;;4.95;3.75;;;17.60;89.90;;;;;;5119074;28;20038;-46
2022/06/27 11:20:15;;;;;;;;;;;17.90;90.10;;;;;;5129347;27;20114;-45
2022/06/27 11:22:46;;;;;;;6.60;4.63;;;17.90;89.80;;;;;;5129195;27;19912;-47
2022/06/27 11:25:15;;;;;;;6.03;4.35;;;17.90;89.30;;;;;;5112459;27;20027;-47
2022/06/27 11:27:44;;;;;;;6.37;4.23;;;17.90;89.50;;;;;;5115223;27;20022;-46
2022/06/27 11:32:54;;;;;;;7.13;4.65;;;17.70;89.50;;;;;;5106869;27;20080;-50
2022/06/27 11:35:20;;;;;;;7.15;5.05;;;17.60;89.60;;;;;;5088604;27;20027;-46
2022/06/27 11:37:46;;;;;;;5.85;5.25;;;17.40;89.90;;;;;;5106297;28;20621;-47
2022/06/27 11:40:12;;;;;;;8.30;5.55;;;17.40;90.10;;;;;;5089436;28;20032;-47
2022/06/27 11:42:41;;;;;;;4.88;3.88;;;17.30;90.30;;;;;;5114527;27;20363;-46
2022/06/27 11:45:09;;;;;;;;;;;17.20;90.20;;;;;;5118238;27;20115;-47
2022/06/27 11:47:39;;;;;;;6.22;3.75;;;17.10;90.50;;;;;;5093204;28;19904;-45
2022/06/27 11:50:16;;;;;;;6.88;4.28;;;17.10;90.80;;;;;;5122623;27;20045;-45
2022/06/27 11:52:44;;;;;;;5.10;4.32;;;17.10;90.70;;;;;;5115256;27;20034;-48
2022/06/27 11:55:18;;;;;;;7.05;3.58;;;17.10;90.60;;;;;;5105852;27;20367;-50
2022/06/27 11:57:55;;;;;;;7.55;4.50;;;17.20;90.80;;;;;;5129859;27;20451;-48
2022/06/27 12:00:23;;;;;;;11.43;4.78;;;17.30;91.00;;;;;;5099133;27;20058;-47
2022/06/27 12:03:09;;;;;;;7.18;4.70;;;17.40;91.10;;;;;;5125863;27;20126;-46
2022/06/27 12:05:38;;;;;;;4.53;3.70;;;17.40;90.90;;;;;;5118484;27;20055;-48
2022/06/27 12:08:09;;;;;;;6.47;3.58;;;17.60;90.80;;;;;;5127648;27;20468;-48
2022/06/27 12:10:35;;;;;;;6.05;4.15;;;17.60;90.40;;;;;;5132466;27;20110;-47
2022/06/27 12:13:03;;;;;;;5.85;3.53;;;17.70;90.20;;;;;;5122027;27;20539;-47
2022/06/27 12:15:28;;;;;;;6.35;3.15;;;17.70;90.00;;;;;;5129874;27;20683;-45
2022/06/27 12:17:59;;;;;;;7.63;3.67;;;17.70;90.20;;;;;;5115417;27;20035;-47
2022/06/27 12:20:27;;;;;;;7.13;3.28;;;17.80;89.90;;;;;;5117864;27;20069;-46
2022/06/27 12:22:56;;;;;;;6.07;3.30;;;17.60;89.40;;;;;;5119320;27;20080;-45
2022/06/27 12:25:24;;;;;;;8.33;2.87;;;17.60;89.60;;;;;;5118781;27;20031;-44
2022/06/27 12:27:50;;;;;;;8.35;3.40;;;17.60;89.50;;;;;;5111886;27;20440;-45
2022/06/27 12:30:18;;;;;;;6.40;2.83;;;17.60;89.80;;;;;;5111556;27;20080;-44
2022/06/27 12:32:44;;;;;;;4.10;2.60;;;17.60;89.80;;;;;;5112250;27;20027;-44
2022/06/27 12:35:11;;;;;;;6.38;3.17;;;17.60;89.50;;;;;;5094157;28;20032;-43
2022/06/27 12:37:37;;;;;;;4.80;2.53;;;17.50;89.60;;;;;;5123726;27;20053;-42
2022/06/27 12:40:05;;;;;;;4.80;2.67;;;17.50;89.80;;;;;;5115746;27;20023;-43
2022/06/27 12:42:31;;;;;;;4.70;2.58;;;17.60;90.00;;;;;;5102408;28;20135;-44
2022/06/27 12:44:57;;;;;;;4.35;2.22;;;17.60;89.80;;;;;;5128455;27;20103;-42
2022/06/27 12:47:23;;;;;;;5.20;3.38;;;17.60;89.50;;;;;;5115334;27;20046;-41
2022/06/27 12:49:49;;;;;;;5.30;2.72;;;17.60;89.60;;;;;;5101172;27;20031;-43
2022/06/27 12:52:16;;;;;;;6.63;3.00;;;17.70;89.40;;;;;;5099668;27;20031;-43
2022/06/27 12:54:42;;;;;;;6.32;3.03;;;17.60;89.30;;;;;;5122794;27;20360;-44
2022/06/27 12:57:08;;;;;;;8.30;3.13;;;17.50;89.40;;;;;;5122011;27;20074;-42
2022/06/27 12:59:36;;;;;;;5.28;3.17;;;17.60;89.50;;;;;;5124274;27;20352;-43
2022/06/27 13:02:02;;;;;;;5.35;3.33;;;17.70;89.60;;;;;;5130001;27;20392;-42
2022/06/27 13:04:28;;;;;;;6.03;2.60;;;17.50;89.50;;;;;;5123827;27;20035;-43